sensor_id;sensor_type;location;lat;lon;timestamp;P1;durP1;ratioP1;P2;durP2;ratioP2
64029;SDS011;50277;52.064;4.492;2023-05-19T00:01:04;8.45;;;3.03;;
64029;SDS011;50277;52.064;4.492;2023-05-19T00:03:31;8.30;;;2.95;;
64029;SDS011;50277;52.064;4.492;2023-05-19T00:05:57;8.88;;;3.33;;
64029;SDS011;50277;52.064;4.492;2023-05-19T00:08:25;9.30;;;3.58;;
64029;SDS011;50277;52.064;4.492;2023-05-19T00:13:20;6.10;;;2.95;;
64029;SDS011;50277;52.064;4.492;2023-05-19T00:15:45;13.85;;;3.65;;
64029;SDS011;50277;52.064;4.492;2023-05-19T00:18:11;7.80;;;3.22;;
64029;SDS011;50277;52.064;4.492;2023-05-19T00:20:38;10.15;;;3.60;;
64029;SDS011;50277;52.064;4.492;2023-05-19T00:23:03;9.48;;;3.38;;
64029;SDS011;50277;52.064;4.492;2023-05-19T00:25:29;11.25;;;3.50;;
64029;SDS011;50277;52.064;4.492;2023-05-19T00:27:54;10.40;;;3.70;;
64029;SDS011;50277;52.064;4.492;2023-05-19T00:30:19;8.27;;;3.35;;
64029;SDS011;50277;52.064;4.492;2023-05-19T00:32:46;10.75;;;3.58;;
64029;SDS011;50277;52.064;4.492;2023-05-19T00:35:12;8.90;;;3.40;;
64029;SDS011;50277;52.064;4.492;2023-05-19T00:37:37;9.52;;;3.80;;
64029;SDS011;50277;52.064;4.492;2023-05-19T00:40:03;8.05;;;3.28;;
64029;SDS011;50277;52.064;4.492;2023-05-19T00:42:30;8.27;;;3.33;;
64029;SDS011;50277;52.064;4.492;2023-05-19T00:44:56;7.53;;;4.05;;
64029;SDS011;50277;52.064;4.492;2023-05-19T00:47:22;9.32;;;4.05;;
64029;SDS011;50277;52.064;4.492;2023-05-19T00:49:47;6.68;;;3.30;;
64029;SDS011;50277;52.064;4.492;2023-05-19T00:52:12;11.30;;;3.28;;
64029;SDS011;50277;52.064;4.492;2023-05-19T00:54:38;7.68;;;3.53;;
64029;SDS011;50277;52.064;4.492;2023-05-19T00:57:03;7.88;;;3.40;;
64029;SDS011;50277;52.064;4.492;2023-05-19T00:59:29;10.40;;;3.53;;
64029;SDS011;50277;52.064;4.492;2023-05-19T01:01:54;12.52;;;3.47;;
64029;SDS011;50277;52.064;4.492;2023-05-19T01:04:19;8.35;;;3.72;;
64029;SDS011;50277;52.064;4.492;2023-05-19T01:06:48;10.52;;;3.95;;
64029;SDS011;50277;52.064;4.492;2023-05-19T01:09:19;12.48;;;3.63;;
64029;SDS011;50277;52.064;4.492;2023-05-19T01:11:45;15.63;;;3.55;;
64029;SDS011;50277;52.064;4.492;2023-05-19T01:14:10;12.57;;;3.97;;
64029;SDS011;50277;52.064;4.492;2023-05-19T01:16:39;8.70;;;3.78;;
64029;SDS011;50277;52.064;4.492;2023-05-19T01:27:42;5.43;;;3.22;;
64029;SDS011;50277;52.064;4.492;2023-05-19T01:32:48;10.05;;;3.63;;
64029;SDS011;50277;52.064;4.492;2023-05-19T01:35:17;10.55;;;3.58;;
64029;SDS011;50277;52.064;4.492;2023-05-19T01:37:43;9.13;;;3.30;;
64029;SDS011;50277;52.064;4.492;2023-05-19T01:40:09;8.73;;;3.95;;
64029;SDS011;50277;52.064;4.492;2023-05-19T01:42:35;9.65;;;3.83;;
64029;SDS011;50277;52.064;4.492;2023-05-19T01:47:31;12.15;;;4.25;;
64029;SDS011;50277;52.064;4.492;2023-05-19T01:49:58;10.85;;;3.90;;
64029;SDS011;50277;52.064;4.492;2023-05-19T01:52:23;13.75;;;3.92;;
64029;SDS011;50277;52.064;4.492;2023-05-19T01:54:48;11.77;;;3.90;;
64029;SDS011;50277;52.064;4.492;2023-05-19T01:57:27;9.85;;;3.88;;
64029;SDS011;50277;52.064;4.492;2023-05-19T02:00:13;6.80;;;3.70;;
64029;SDS011;50277;52.064;4.492;2023-05-19T02:05:21;6.82;;;3.45;;
64029;SDS011;50277;52.064;4.492;2023-05-19T02:08:00;10.10;;;3.97;;
64029;SDS011;50277;52.064;4.492;2023-05-19T02:10:32;7.18;;;3.40;;
64029;SDS011;50277;52.064;4.492;2023-05-19T02:13:03;12.00;;;3.83;;
64029;SDS011;50277;52.064;4.492;2023-05-19T02:15:29;7.13;;;3.50;;
64029;SDS011;50277;52.064;4.492;2023-05-19T02:17:59;10.77;;;3.88;;
64029;SDS011;50277;52.064;4.492;2023-05-19T02:20:28;9.90;;;3.97;;
64029;SDS011;50277;52.064;4.492;2023-05-19T02:22:55;11.10;;;4.18;;
64029;SDS011;50277;52.064;4.492;2023-05-19T02:25:21;12.43;;;4.97;;
64029;SDS011;50277;52.064;4.492;2023-05-19T02:27:47;11.60;;;4.18;;
64029;SDS011;50277;52.064;4.492;2023-05-19T02:30:13;11.00;;;3.95;;
64029;SDS011;50277;52.064;4.492;2023-05-19T02:32:38;8.95;;;3.78;;
64029;SDS011;50277;52.064;4.492;2023-05-19T02:35:04;16.85;;;4.03;;
64029;SDS011;50277;52.064;4.492;2023-05-19T02:37:29;10.27;;;3.85;;
64029;SDS011;50277;52.064;4.492;2023-05-19T02:39:56;7.88;;;4.43;;
64029;SDS011;50277;52.064;4.492;2023-05-19T02:42:22;8.98;;;4.90;;
64029;SDS011;50277;52.064;4.492;2023-05-19T02:44:47;10.77;;;4.07;;
64029;SDS011;50277;52.064;4.492;2023-05-19T02:47:12;11.13;;;4.20;;
64029;SDS011;50277;52.064;4.492;2023-05-19T02:49:38;7.95;;;4.35;;
64029;SDS011;50277;52.064;4.492;2023-05-19T02:52:04;12.82;;;4.28;;
64029;SDS011;50277;52.064;4.492;2023-05-19T02:54:29;8.27;;;3.55;;
64029;SDS011;50277;52.064;4.492;2023-05-19T02:56:55;14.13;;;3.72;;
64029;SDS011;50277;52.064;4.492;2023-05-19T02:59:21;10.70;;;4.20;;
64029;SDS011;50277;52.064;4.492;2023-05-19T03:01:47;10.90;;;3.83;;
64029;SDS011;50277;52.064;4.492;2023-05-19T03:04:12;8.38;;;3.63;;
64029;SDS011;50277;52.064;4.492;2023-05-19T03:06:38;6.70;;;3.90;;
64029;SDS011;50277;52.064;4.492;2023-05-19T03:09:03;10.23;;;3.92;;
64029;SDS011;50277;52.064;4.492;2023-05-19T03:11:29;11.98;;;4.43;;
64029;SDS011;50277;52.064;4.492;2023-05-19T03:13:54;9.95;;;4.05;;
64029;SDS011;50277;52.064;4.492;2023-05-19T03:16:20;6.53;;;4.20;;
64029;SDS011;50277;52.064;4.492;2023-05-19T03:18:45;12.85;;;4.63;;
64029;SDS011;50277;52.064;4.492;2023-05-19T03:21:11;9.77;;;4.40;;
64029;SDS011;50277;52.064;4.492;2023-05-19T03:23:36;11.98;;;4.13;;
64029;SDS011;50277;52.064;4.492;2023-05-19T03:26:01;11.02;;;4.72;;
64029;SDS011;50277;52.064;4.492;2023-05-19T03:28:27;6.93;;;3.90;;
64029;SDS011;50277;52.064;4.492;2023-05-19T03:30:52;11.90;;;4.35;;
64029;SDS011;50277;52.064;4.492;2023-05-19T03:33:17;10.95;;;4.13;;
64029;SDS011;50277;52.064;4.492;2023-05-19T03:35:43;9.55;;;4.38;;
64029;SDS011;50277;52.064;4.492;2023-05-19T03:38:09;13.38;;;4.38;;
64029;SDS011;50277;52.064;4.492;2023-05-19T03:40:35;12.35;;;5.28;;
64029;SDS011;50277;52.064;4.492;2023-05-19T03:43:00;8.30;;;4.72;;
64029;SDS011;50277;52.064;4.492;2023-05-19T03:45:26;7.80;;;4.00;;
64029;SDS011;50277;52.064;4.492;2023-05-19T03:47:51;11.93;;;4.28;;
64029;SDS011;50277;52.064;4.492;2023-05-19T03:50:17;12.93;;;4.43;;
64029;SDS011;50277;52.064;4.492;2023-05-19T03:52:42;9.18;;;4.18;;
64029;SDS011;50277;52.064;4.492;2023-05-19T03:55:10;10.35;;;5.07;;
64029;SDS011;50277;52.064;4.492;2023-05-19T03:57:36;8.32;;;4.22;;
64029;SDS011;50277;52.064;4.492;2023-05-19T04:00:02;6.22;;;4.55;;
64029;SDS011;50277;52.064;4.492;2023-05-19T04:02:29;12.93;;;4.30;;
64029;SDS011;50277;52.064;4.492;2023-05-19T04:04:55;9.30;;;4.32;;
64029;SDS011;50277;52.064;4.492;2023-05-19T04:07:21;8.82;;;4.38;;
64029;SDS011;50277;52.064;4.492;2023-05-19T04:09:46;9.13;;;4.45;;
64029;SDS011;50277;52.064;4.492;2023-05-19T04:12:12;8.15;;;4.75;;
64029;SDS011;50277;52.064;4.492;2023-05-19T04:14:37;12.20;;;4.28;;
64029;SDS011;50277;52.064;4.492;2023-05-19T04:17:03;11.23;;;4.45;;
64029;SDS011;50277;52.064;4.492;2023-05-19T04:19:28;11.73;;;4.60;;
64029;SDS011;50277;52.064;4.492;2023-05-19T04:21:54;6.93;;;4.40;;
64029;SDS011;50277;52.064;4.492;2023-05-19T04:24:19;9.15;;;4.57;;
64029;SDS011;50277;52.064;4.492;2023-05-19T04:26:44;7.43;;;4.20;;
64029;SDS011;50277;52.064;4.492;2023-05-19T04:29:11;10.35;;;4.60;;
64029;SDS011;50277;52.064;4.492;2023-05-19T04:31:37;7.70;;;4.40;;
64029;SDS011;50277;52.064;4.492;2023-05-19T04:34:05;8.98;;;4.40;;
64029;SDS011;50277;52.064;4.492;2023-05-19T04:36:31;11.48;;;4.68;;
64029;SDS011;50277;52.064;4.492;2023-05-19T04:38:57;8.10;;;4.22;;
64029;SDS011;50277;52.064;4.492;2023-05-19T04:41:26;16.23;;;4.57;;
64029;SDS011;50277;52.064;4.492;2023-05-19T04:43:52;12.20;;;4.60;;
64029;SDS011;50277;52.064;4.492;2023-05-19T04:46:17;8.27;;;4.40;;
64029;SDS011;50277;52.064;4.492;2023-05-19T04:48:48;9.77;;;4.43;;
64029;SDS011;50277;52.064;4.492;2023-05-19T04:51:14;12.27;;;4.53;;
64029;SDS011;50277;52.064;4.492;2023-05-19T04:53:40;10.73;;;4.13;;
64029;SDS011;50277;52.064;4.492;2023-05-19T04:56:05;7.82;;;4.13;;
64029;SDS011;50277;52.064;4.492;2023-05-19T04:58:31;14.00;;;4.40;;
64029;SDS011;50277;52.064;4.492;2023-05-19T05:00:57;12.73;;;5.00;;
64029;SDS011;50277;52.064;4.492;2023-05-19T05:03:23;7.10;;;4.28;;
64029;SDS011;50277;52.064;4.492;2023-05-19T05:05:48;9.18;;;4.13;;
64029;SDS011;50277;52.064;4.492;2023-05-19T05:08:14;9.90;;;4.20;;
64029;SDS011;50277;52.064;4.492;2023-05-19T05:10:45;7.43;;;3.95;;
64029;SDS011;50277;52.064;4.492;2023-05-19T05:13:11;8.63;;;4.45;;
64029;SDS011;50277;52.064;4.492;2023-05-19T05:15:36;7.57;;;4.28;;
64029;SDS011;50277;52.064;4.492;2023-05-19T05:18:02;8.98;;;4.03;;
64029;SDS011;50277;52.064;4.492;2023-05-19T05:20:28;12.25;;;4.90;;
64029;SDS011;50277;52.064;4.492;2023-05-19T05:22:55;13.68;;;4.70;;
64029;SDS011;50277;52.064;4.492;2023-05-19T05:25:21;12.82;;;4.55;;
64029;SDS011;50277;52.064;4.492;2023-05-19T05:27:47;7.55;;;4.20;;
64029;SDS011;50277;52.064;4.492;2023-05-19T05:30:12;10.57;;;4.10;;
64029;SDS011;50277;52.064;4.492;2023-05-19T05:32:38;9.40;;;4.78;;
64029;SDS011;50277;52.064;4.492;2023-05-19T05:35:03;10.07;;;4.25;;
64029;SDS011;50277;52.064;4.492;2023-05-19T05:37:29;7.47;;;4.28;;
64029;SDS011;50277;52.064;4.492;2023-05-19T05:39:54;9.18;;;4.15;;
64029;SDS011;50277;52.064;4.492;2023-05-19T05:42:20;11.68;;;4.57;;
64029;SDS011;50277;52.064;4.492;2023-05-19T05:44:45;11.65;;;4.18;;
64029;SDS011;50277;52.064;4.492;2023-05-19T05:47:10;13.70;;;4.38;;
64029;SDS011;50277;52.064;4.492;2023-05-19T05:49:36;8.05;;;4.25;;
64029;SDS011;50277;52.064;4.492;2023-05-19T05:52:03;14.50;;;4.72;;
64029;SDS011;50277;52.064;4.492;2023-05-19T05:54:28;11.43;;;4.82;;
64029;SDS011;50277;52.064;4.492;2023-05-19T05:56:54;9.13;;;4.32;;
64029;SDS011;50277;52.064;4.492;2023-05-19T05:59:20;12.57;;;4.07;;
64029;SDS011;50277;52.064;4.492;2023-05-19T06:01:45;13.13;;;4.63;;
64029;SDS011;50277;52.064;4.492;2023-05-19T06:04:11;12.43;;;4.72;;
64029;SDS011;50277;52.064;4.492;2023-05-19T06:06:36;11.10;;;4.93;;
64029;SDS011;50277;52.064;4.492;2023-05-19T06:09:02;11.10;;;4.50;;
64029;SDS011;50277;52.064;4.492;2023-05-19T06:11:27;8.13;;;4.10;;
64029;SDS011;50277;52.064;4.492;2023-05-19T06:13:53;12.02;;;4.32;;
64029;SDS011;50277;52.064;4.492;2023-05-19T06:16:18;9.30;;;3.92;;
64029;SDS011;50277;52.064;4.492;2023-05-19T06:18:43;7.05;;;3.92;;
64029;SDS011;50277;52.064;4.492;2023-05-19T06:21:09;15.13;;;4.78;;
64029;SDS011;50277;52.064;4.492;2023-05-19T06:23:34;9.18;;;3.97;;
64029;SDS011;50277;52.064;4.492;2023-05-19T06:26:00;14.10;;;4.80;;
64029;SDS011;50277;52.064;4.492;2023-05-19T06:28:26;11.68;;;4.40;;
64029;SDS011;50277;52.064;4.492;2023-05-19T06:30:51;10.05;;;3.97;;
64029;SDS011;50277;52.064;4.492;2023-05-19T06:33:17;9.30;;;4.60;;
64029;SDS011;50277;52.064;4.492;2023-05-19T06:35:42;10.75;;;4.85;;
64029;SDS011;50277;52.064;4.492;2023-05-19T06:38:07;8.57;;;4.32;;
64029;SDS011;50277;52.064;4.492;2023-05-19T06:40:33;7.38;;;4.10;;
64029;SDS011;50277;52.064;4.492;2023-05-19T06:42:58;17.02;;;4.93;;
64029;SDS011;50277;52.064;4.492;2023-05-19T06:45:23;10.85;;;4.60;;
64029;SDS011;50277;52.064;4.492;2023-05-19T06:47:49;10.55;;;4.75;;
64029;SDS011;50277;52.064;4.492;2023-05-19T06:50:15;13.00;;;4.05;;
64029;SDS011;50277;52.064;4.492;2023-05-19T06:52:40;9.10;;;4.20;;
64029;SDS011;50277;52.064;4.492;2023-05-19T06:55:05;10.20;;;4.72;;
64029;SDS011;50277;52.064;4.492;2023-05-19T06:57:31;10.02;;;4.50;;
64029;SDS011;50277;52.064;4.492;2023-05-19T06:59:57;11.02;;;4.43;;
64029;SDS011;50277;52.064;4.492;2023-05-19T07:02:22;9.93;;;4.35;;
64029;SDS011;50277;52.064;4.492;2023-05-19T07:04:47;11.95;;;4.47;;
64029;SDS011;50277;52.064;4.492;2023-05-19T07:07:13;11.35;;;4.32;;
64029;SDS011;50277;52.064;4.492;2023-05-19T07:09:38;8.93;;;4.07;;
64029;SDS011;50277;52.064;4.492;2023-05-19T07:12:04;8.38;;;3.70;;
64029;SDS011;50277;52.064;4.492;2023-05-19T07:14:29;6.68;;;3.88;;
64029;SDS011;50277;52.064;4.492;2023-05-19T07:16:55;10.00;;;4.82;;
64029;SDS011;50277;52.064;4.492;2023-05-19T07:19:20;12.25;;;3.78;;
64029;SDS011;50277;52.064;4.492;2023-05-19T07:21:46;8.45;;;3.63;;
64029;SDS011;50277;52.064;4.492;2023-05-19T07:24:11;9.77;;;4.15;;
64029;SDS011;50277;52.064;4.492;2023-05-19T07:26:37;8.98;;;3.67;;
64029;SDS011;50277;52.064;4.492;2023-05-19T07:29:02;10.80;;;4.47;;
64029;SDS011;50277;52.064;4.492;2023-05-19T07:31:28;10.02;;;4.15;;
64029;SDS011;50277;52.064;4.492;2023-05-19T07:33:53;12.23;;;3.88;;
64029;SDS011;50277;52.064;4.492;2023-05-19T07:36:19;9.48;;;4.18;;
64029;SDS011;50277;52.064;4.492;2023-05-19T07:38:44;8.45;;;3.63;;
64029;SDS011;50277;52.064;4.492;2023-05-19T07:41:10;8.10;;;4.38;;
64029;SDS011;50277;52.064;4.492;2023-05-19T07:43:35;9.68;;;4.00;;
64029;SDS011;50277;52.064;4.492;2023-05-19T07:46:01;10.30;;;4.38;;
64029;SDS011;50277;52.064;4.492;2023-05-19T07:48:26;6.18;;;3.40;;
64029;SDS011;50277;52.064;4.492;2023-05-19T07:50:52;8.05;;;3.65;;
64029;SDS011;50277;52.064;4.492;2023-05-19T07:53:20;7.72;;;3.65;;
64029;SDS011;50277;52.064;4.492;2023-05-19T07:55:46;8.10;;;3.40;;
64029;SDS011;50277;52.064;4.492;2023-05-19T07:58:12;11.10;;;4.00;;
64029;SDS011;50277;52.064;4.492;2023-05-19T08:00:37;9.02;;;4.03;;
64029;SDS011;50277;52.064;4.492;2023-05-19T08:03:02;10.45;;;3.70;;
64029;SDS011;50277;52.064;4.492;2023-05-19T08:05:28;8.82;;;3.45;;
64029;SDS011;50277;52.064;4.492;2023-05-19T08:07:54;12.05;;;4.45;;
64029;SDS011;50277;52.064;4.492;2023-05-19T08:10:20;8.73;;;4.32;;
64029;SDS011;50277;52.064;4.492;2023-05-19T08:12:45;7.05;;;3.60;;
64029;SDS011;50277;52.064;4.492;2023-05-19T08:15:11;7.28;;;4.20;;
64029;SDS011;50277;52.064;4.492;2023-05-19T08:17:36;9.52;;;3.83;;
64029;SDS011;50277;52.064;4.492;2023-05-19T08:20:02;8.57;;;3.70;;
64029;SDS011;50277;52.064;4.492;2023-05-19T08:22:30;8.82;;;4.00;;
64029;SDS011;50277;52.064;4.492;2023-05-19T08:24:55;6.43;;;3.70;;
64029;SDS011;50277;52.064;4.492;2023-05-19T08:27:20;8.45;;;4.18;;
64029;SDS011;50277;52.064;4.492;2023-05-19T08:29:46;7.10;;;3.55;;
64029;SDS011;50277;52.064;4.492;2023-05-19T08:32:11;6.07;;;3.72;;
64029;SDS011;50277;52.064;4.492;2023-05-19T08:34:37;8.80;;;4.07;;
64029;SDS011;50277;52.064;4.492;2023-05-19T08:37:02;7.30;;;3.67;;
64029;SDS011;50277;52.064;4.492;2023-05-19T08:39:27;7.57;;;4.13;;
64029;SDS011;50277;52.064;4.492;2023-05-19T08:41:53;6.10;;;3.83;;
64029;SDS011;50277;52.064;4.492;2023-05-19T08:44:18;12.13;;;3.80;;
64029;SDS011;50277;52.064;4.492;2023-05-19T08:46:43;10.10;;;3.88;;
64029;SDS011;50277;52.064;4.492;2023-05-19T08:49:10;9.30;;;3.78;;
64029;SDS011;50277;52.064;4.492;2023-05-19T08:54:13;10.50;;;3.65;;
64029;SDS011;50277;52.064;4.492;2023-05-19T08:56:40;7.57;;;3.20;;
64029;SDS011;50277;52.064;4.492;2023-05-19T09:01:32;7.20;;;3.23;;
64029;SDS011;50277;52.064;4.492;2023-05-19T09:03:57;4.47;;;2.80;;
64029;SDS011;50277;52.064;4.492;2023-05-19T09:06:23;6.70;;;3.00;;
64029;SDS011;50277;52.064;4.492;2023-05-19T09:08:49;6.63;;;2.92;;
64029;SDS011;50277;52.064;4.492;2023-05-19T09:11:14;7.07;;;2.72;;
64029;SDS011;50277;52.064;4.492;2023-05-19T09:13:40;8.43;;;2.70;;
64029;SDS011;50277;52.064;4.492;2023-05-19T09:16:06;6.00;;;2.97;;
64029;SDS011;50277;52.064;4.492;2023-05-19T09:18:31;5.70;;;2.70;;
64029;SDS011;50277;52.064;4.492;2023-05-19T09:20:58;5.70;;;2.70;;
64029;SDS011;50277;52.064;4.492;2023-05-19T09:23:29;6.93;;;2.60;;
64029;SDS011;50277;52.064;4.492;2023-05-19T09:26:00;4.78;;;2.15;;
64029;SDS011;50277;52.064;4.492;2023-05-19T09:28:26;5.97;;;2.65;;
64029;SDS011;50277;52.064;4.492;2023-05-19T09:33:38;6.22;;;2.10;;
64029;SDS011;50277;52.064;4.492;2023-05-19T09:36:06;6.97;;;2.85;;
64029;SDS011;50277;52.064;4.492;2023-05-19T09:38:35;9.82;;;3.08;;
64029;SDS011;50277;52.064;4.492;2023-05-19T09:41:02;7.93;;;2.85;;
64029;SDS011;50277;52.064;4.492;2023-05-19T09:43:29;6.20;;;2.22;;
64029;SDS011;50277;52.064;4.492;2023-05-19T09:45:59;10.82;;;2.90;;
64029;SDS011;50277;52.064;4.492;2023-05-19T09:48:27;10.20;;;3.03;;
64029;SDS011;50277;52.064;4.492;2023-05-19T09:50:53;6.82;;;2.78;;
64029;SDS011;50277;52.064;4.492;2023-05-19T09:53:19;8.75;;;2.30;;
64029;SDS011;50277;52.064;4.492;2023-05-19T09:55:45;6.70;;;2.47;;
64029;SDS011;50277;52.064;4.492;2023-05-19T09:58:14;7.60;;;2.28;;
64029;SDS011;50277;52.064;4.492;2023-05-19T10:00:41;6.53;;;2.20;;
64029;SDS011;50277;52.064;4.492;2023-05-19T10:03:06;9.13;;;2.65;;
64029;SDS011;50277;52.064;4.492;2023-05-19T10:05:33;6.65;;;2.60;;
64029;SDS011;50277;52.064;4.492;2023-05-19T10:07:58;5.95;;;2.20;;
64029;SDS011;50277;52.064;4.492;2023-05-19T10:10:24;7.35;;;2.28;;
64029;SDS011;50277;52.064;4.492;2023-05-19T10:12:51;9.77;;;2.92;;
64029;SDS011;50277;52.064;4.492;2023-05-19T10:15:18;6.20;;;2.58;;
64029;SDS011;50277;52.064;4.492;2023-05-19T10:17:44;7.97;;;2.58;;
64029;SDS011;50277;52.064;4.492;2023-05-19T10:20:10;8.20;;;2.30;;
64029;SDS011;50277;52.064;4.492;2023-05-19T10:22:41;7.00;;;2.53;;
64029;SDS011;50277;52.064;4.492;2023-05-19T10:25:07;5.82;;;2.65;;
64029;SDS011;50277;52.064;4.492;2023-05-19T10:27:50;9.40;;;2.83;;
64029;SDS011;50277;52.064;4.492;2023-05-19T10:30:19;7.95;;;3.10;;
64029;SDS011;50277;52.064;4.492;2023-05-19T10:32:49;8.45;;;2.83;;
64029;SDS011;50277;52.064;4.492;2023-05-19T10:35:25;7.10;;;2.92;;
64029;SDS011;50277;52.064;4.492;2023-05-19T10:38:11;6.53;;;3.10;;
64029;SDS011;50277;52.064;4.492;2023-05-19T10:43:43;8.35;;;3.00;;
64029;SDS011;50277;52.064;4.492;2023-05-19T10:46:27;5.53;;;2.72;;
64029;SDS011;50277;52.064;4.492;2023-05-19T10:48:53;7.15;;;2.92;;
64029;SDS011;50277;52.064;4.492;2023-05-19T10:51:19;8.75;;;2.67;;
64029;SDS011;50277;52.064;4.492;2023-05-19T10:53:44;7.07;;;2.58;;
64029;SDS011;50277;52.064;4.492;2023-05-19T10:56:10;10.45;;;3.25;;
64029;SDS011;50277;52.064;4.492;2023-05-19T11:01:17;8.55;;;2.78;;
64029;SDS011;50277;52.064;4.492;2023-05-19T11:03:53;7.40;;;2.70;;
64029;SDS011;50277;52.064;4.492;2023-05-19T11:08:52;7.03;;;3.03;;
64029;SDS011;50277;52.064;4.492;2023-05-19T11:11:18;8.95;;;2.97;;
64029;SDS011;50277;52.064;4.492;2023-05-19T11:13:50;6.75;;;2.78;;
64029;SDS011;50277;52.064;4.492;2023-05-19T11:16:26;8.20;;;2.97;;
64029;SDS011;50277;52.064;4.492;2023-05-19T11:18:52;8.27;;;2.60;;
64029;SDS011;50277;52.064;4.492;2023-05-19T11:21:19;4.78;;;2.72;;
64029;SDS011;50277;52.064;4.492;2023-05-19T11:23:44;5.65;;;2.95;;
64029;SDS011;50277;52.064;4.492;2023-05-19T11:26:09;6.47;;;3.10;;
64029;SDS011;50277;52.064;4.492;2023-05-19T11:28:36;5.60;;;2.83;;
64029;SDS011;50277;52.064;4.492;2023-05-19T11:31:03;6.78;;;3.40;;
64029;SDS011;50277;52.064;4.492;2023-05-19T11:33:31;9.18;;;3.28;;
64029;SDS011;50277;52.064;4.492;2023-05-19T11:35:57;5.63;;;2.67;;
64029;SDS011;50277;52.064;4.492;2023-05-19T11:38:23;6.40;;;3.40;;
64029;SDS011;50277;52.064;4.492;2023-05-19T11:40:51;8.93;;;3.13;;
64029;SDS011;50277;52.064;4.492;2023-05-19T11:43:16;4.72;;;2.50;;
64029;SDS011;50277;52.064;4.492;2023-05-19T11:45:42;7.20;;;3.08;;
64029;SDS011;50277;52.064;4.492;2023-05-19T11:48:11;8.20;;;3.10;;
64029;SDS011;50277;52.064;4.492;2023-05-19T11:50:36;13.38;;;3.17;;
64029;SDS011;50277;52.064;4.492;2023-05-19T11:53:04;4.30;;;2.60;;
64029;SDS011;50277;52.064;4.492;2023-05-19T11:55:30;9.43;;;3.47;;
64029;SDS011;50277;52.064;4.492;2023-05-19T12:00:24;7.70;;;3.33;;
64029;SDS011;50277;52.064;4.492;2023-05-19T12:02:50;6.97;;;3.05;;
64029;SDS011;50277;52.064;4.492;2023-05-19T12:05:17;5.47;;;2.83;;
64029;SDS011;50277;52.064;4.492;2023-05-19T12:07:43;5.65;;;2.80;;
64029;SDS011;50277;52.064;4.492;2023-05-19T12:10:09;6.38;;;2.92;;
64029;SDS011;50277;52.064;4.492;2023-05-19T12:12:34;7.57;;;3.33;;
64029;SDS011;50277;52.064;4.492;2023-05-19T12:15:01;4.30;;;2.50;;
64029;SDS011;50277;52.064;4.492;2023-05-19T12:17:27;7.63;;;3.65;;
64029;SDS011;50277;52.064;4.492;2023-05-19T12:19:53;8.85;;;3.40;;
64029;SDS011;50277;52.064;4.492;2023-05-19T12:22:19;6.82;;;2.92;;
64029;SDS011;50277;52.064;4.492;2023-05-19T12:24:45;7.35;;;3.15;;
64029;SDS011;50277;52.064;4.492;2023-05-19T12:27:23;8.40;;;3.70;;
64029;SDS011;50277;52.064;4.492;2023-05-19T12:29:50;6.88;;;3.17;;
64029;SDS011;50277;52.064;4.492;2023-05-19T12:32:16;14.43;;;4.07;;
64029;SDS011;50277;52.064;4.492;2023-05-19T12:34:42;8.75;;;3.15;;
64029;SDS011;50277;52.064;4.492;2023-05-19T12:37:09;7.40;;;3.33;;
64029;SDS011;50277;52.064;4.492;2023-05-19T12:39:34;6.75;;;2.85;;
64029;SDS011;50277;52.064;4.492;2023-05-19T12:42:00;8.85;;;3.25;;
64029;SDS011;50277;52.064;4.492;2023-05-19T12:44:35;7.45;;;2.75;;
64029;SDS011;50277;52.064;4.492;2023-05-19T12:47:10;10.43;;;3.53;;
64029;SDS011;50277;52.064;4.492;2023-05-19T12:49:36;8.10;;;3.17;;
64029;SDS011;50277;52.064;4.492;2023-05-19T12:52:01;7.82;;;3.20;;
64029;SDS011;50277;52.064;4.492;2023-05-19T12:54:28;6.03;;;3.17;;
64029;SDS011;50277;52.064;4.492;2023-05-19T12:56:57;12.18;;;3.80;;
64029;SDS011;50277;52.064;4.492;2023-05-19T12:59:23;11.07;;;3.35;;
64029;SDS011;50277;52.064;4.492;2023-05-19T13:01:58;9.10;;;3.30;;
64029;SDS011;50277;52.064;4.492;2023-05-19T13:04:24;6.53;;;2.88;;
64029;SDS011;50277;52.064;4.492;2023-05-19T13:06:51;6.53;;;3.45;;
64029;SDS011;50277;52.064;4.492;2023-05-19T13:09:17;6.97;;;3.10;;
64029;SDS011;50277;52.064;4.492;2023-05-19T13:11:42;11.82;;;3.83;;
64029;SDS011;50277;52.064;4.492;2023-05-19T13:14:08;8.77;;;3.50;;
64029;SDS011;50277;52.064;4.492;2023-05-19T13:16:34;7.38;;;3.35;;
64029;SDS011;50277;52.064;4.492;2023-05-19T13:18:59;7.20;;;3.40;;
64029;SDS011;50277;52.064;4.492;2023-05-19T13:21:24;5.57;;;2.80;;
64029;SDS011;50277;52.064;4.492;2023-05-19T13:23:50;7.82;;;3.22;;
64029;SDS011;50277;52.064;4.492;2023-05-19T13:26:16;6.72;;;3.13;;
64029;SDS011;50277;52.064;4.492;2023-05-19T13:28:41;8.35;;;2.90;;
64029;SDS011;50277;52.064;4.492;2023-05-19T13:31:06;5.68;;;2.75;;
64029;SDS011;50277;52.064;4.492;2023-05-19T13:33:32;6.40;;;2.65;;
64029;SDS011;50277;52.064;4.492;2023-05-19T13:35:57;7.38;;;2.75;;
64029;SDS011;50277;52.064;4.492;2023-05-19T13:38:22;6.25;;;2.80;;
64029;SDS011;50277;52.064;4.492;2023-05-19T13:40:48;8.88;;;3.17;;
64029;SDS011;50277;52.064;4.492;2023-05-19T13:43:13;5.93;;;2.70;;
64029;SDS011;50277;52.064;4.492;2023-05-19T13:45:38;15.40;;;3.75;;
64029;SDS011;50277;52.064;4.492;2023-05-19T13:48:06;10.25;;;3.58;;
64029;SDS011;50277;52.064;4.492;2023-05-19T13:50:32;9.02;;;3.38;;
64029;SDS011;50277;52.064;4.492;2023-05-19T13:52:58;7.85;;;2.65;;
64029;SDS011;50277;52.064;4.492;2023-05-19T13:55:23;5.00;;;2.40;;
64029;SDS011;50277;52.064;4.492;2023-05-19T13:57:51;9.05;;;3.22;;
64029;SDS011;50277;52.064;4.492;2023-05-19T14:00:16;7.03;;;2.78;;
64029;SDS011;50277;52.064;4.492;2023-05-19T14:02:42;9.32;;;2.78;;
64029;SDS011;50277;52.064;4.492;2023-05-19T14:05:08;8.18;;;2.92;;
64029;SDS011;50277;52.064;4.492;2023-05-19T14:07:33;6.50;;;2.90;;
64029;SDS011;50277;52.064;4.492;2023-05-19T14:09:59;5.72;;;2.67;;
64029;SDS011;50277;52.064;4.492;2023-05-19T14:12:24;6.50;;;2.75;;
64029;SDS011;50277;52.064;4.492;2023-05-19T14:14:50;8.18;;;3.90;;
64029;SDS011;50277;52.064;4.492;2023-05-19T14:17:15;6.93;;;2.65;;
64029;SDS011;50277;52.064;4.492;2023-05-19T14:19:40;11.23;;;3.38;;
64029;SDS011;50277;52.064;4.492;2023-05-19T14:22:06;5.72;;;2.53;;
64029;SDS011;50277;52.064;4.492;2023-05-19T14:24:31;9.18;;;3.15;;
64029;SDS011;50277;52.064;4.492;2023-05-19T14:26:56;12.00;;;3.15;;
64029;SDS011;50277;52.064;4.492;2023-05-19T14:29:22;5.88;;;2.40;;
64029;SDS011;50277;52.064;4.492;2023-05-19T14:31:47;8.70;;;2.97;;
64029;SDS011;50277;52.064;4.492;2023-05-19T14:34:13;5.65;;;2.90;;
64029;SDS011;50277;52.064;4.492;2023-05-19T14:36:41;7.13;;;3.05;;
64029;SDS011;50277;52.064;4.492;2023-05-19T14:39:08;10.70;;;2.95;;
64029;SDS011;50277;52.064;4.492;2023-05-19T14:41:33;5.18;;;2.80;;
64029;SDS011;50277;52.064;4.492;2023-05-19T14:43:58;6.20;;;3.08;;
64029;SDS011;50277;52.064;4.492;2023-05-19T14:46:24;9.38;;;2.97;;
64029;SDS011;50277;52.064;4.492;2023-05-19T14:48:49;13.90;;;3.10;;
64029;SDS011;50277;52.064;4.492;2023-05-19T14:51:14;5.88;;;2.85;;
64029;SDS011;50277;52.064;4.492;2023-05-19T14:53:40;7.72;;;2.95;;
64029;SDS011;50277;52.064;4.492;2023-05-19T14:56:05;6.78;;;2.38;;
64029;SDS011;50277;52.064;4.492;2023-05-19T14:58:31;4.93;;;2.58;;
64029;SDS011;50277;52.064;4.492;2023-05-19T15:00:57;7.38;;;2.80;;
64029;SDS011;50277;52.064;4.492;2023-05-19T15:03:23;7.97;;;2.95;;
64029;SDS011;50277;52.064;4.492;2023-05-19T15:05:48;5.97;;;2.20;;
64029;SDS011;50277;52.064;4.492;2023-05-19T15:08:14;6.30;;;2.80;;
64029;SDS011;50277;52.064;4.492;2023-05-19T15:10:39;5.90;;;3.38;;
64029;SDS011;50277;52.064;4.492;2023-05-19T15:13:05;5.88;;;2.97;;
64029;SDS011;50277;52.064;4.492;2023-05-19T15:15:30;7.15;;;2.95;;